Time;durP1;ratioP1;P1;durP2;ratioP2;P2;SDS_P1;SDS_P2;PMS_P1;PMS_P2;Temp;Humidity;BMP_temperature;BMP_pressure;BME280_temperature;BME280_humidity;BME280_pressure;Samples;Min_cycle;Max_cycle;Signal;HPM_P1;HPM_P2
2023/04/15 00:02:14;;;;;;;7.20;6.03;;;14.20;99.40;;;;;;5011243;28;20638;-68
2023/04/15 00:04:41;;;;;;;7.53;6.00;;;14.20;99.40;;;;;;5015215;28;20310;-68
2023/04/15 00:07:08;;;;;;;5.53;5.03;;;14.10;99.40;;;;;;5017604;28;20213;-68
2023/04/15 00:09:37;;;;;;;8.60;5.20;;;14.10;99.50;;;;;;5019367;28;20260;-69
2023/04/15 00:12:05;;;;;;;7.00;5.30;;;14.00;99.50;;;;;;5020108;28;20192;-68
2023/04/15 00:14:34;;;;;;;7.57;5.50;;;14.00;99.50;;;;;;5019547;28;20225;-68
2023/04/15 00:17:02;;;;;;;6.83;5.57;;;14.00;99.50;;;;;;5018186;28;20486;-68
2023/04/15 00:19:29;;;;;;;6.00;4.60;;;14.00;99.50;;;;;;5019384;28;20203;-68
2023/04/15 00:21:56;;;;;;;9.20;6.30;;;14.00;99.60;;;;;;5019530;28;20263;-67
2023/04/15 00:24:23;;;;;;;8.93;6.50;;;14.00;99.60;;;;;;5019082;28;20209;-68
2023/04/15 00:26:51;;;;;;;7.87;6.37;;;14.00;99.60;;;;;;5019262;28;20216;-67
2023/04/15 00:29:18;;;;;;;9.67;7.33;;;14.00;99.60;;;;;;5017021;28;20663;-68
2023/04/15 00:31:46;;;;;;;7.93;6.37;;;14.40;99.60;;;;;;4998322;28;20548;-68
2023/04/15 00:34:14;;;;;;;9.90;6.23;;;14.00;99.50;;;;;;5017264;28;20226;-68
2023/04/15 00:36:43;;;;;;;8.30;6.43;;;13.90;99.50;;;;;;5015972;28;20287;-68
2023/04/15 00:39:10;;;;;;;5.47;4.73;;;13.90;99.50;;;;;;5037959;28;20197;-68
2023/04/15 00:41:39;;;;;;;5.40;4.40;;;13.90;99.50;;;;;;5019107;28;20194;-70
2023/04/15 00:44:06;;;;;;;4.30;3.90;;;13.90;99.60;;;;;;5018301;28;20259;-68
2023/04/15 00:46:37;;;;;;;4.20;3.80;;;13.90;99.60;;;;;;5017712;28;20542;-67
2023/04/15 00:49:06;;;;;;;3.93;3.63;;;13.90;99.70;;;;;;5018430;28;20289;-67
2023/04/15 00:51:35;;;;;;;3.80;3.40;;;13.90;99.70;;;;;;5018155;28;20198;-68
2023/04/15 00:54:03;;;;;;;3.87;3.57;;;13.90;99.70;;;;;;5019549;28;20209;-68
2023/04/15 00:56:31;;;;;;;4.60;3.53;;;13.90;99.70;;;;;;5019540;28;20370;-67
2023/04/15 00:58:59;;;;;;;6.43;4.70;;;13.90;99.70;;;;;;4999143;28;20196;-68
2023/04/15 01:01:27;;;;;;;4.30;3.90;;;14.00;99.70;;;;;;4998228;28;20292;-68
2023/04/15 01:03:56;;;;;;;3.70;3.40;;;14.00;99.60;;;;;;5017339;28;20750;-68
2023/04/15 01:06:26;;;;;;;4.80;4.10;;;13.90;99.60;;;;;;5018164;28;20688;-67
2023/04/15 01:08:53;;;;;;;8.20;5.40;;;13.90;99.60;;;;;;4995542;28;20224;-68
2023/04/15 01:11:21;;;;;;;5.70;4.50;;;13.90;99.60;;;;;;5017693;28;20839;-68
2023/04/15 01:13:52;;;;;;;6.43;5.70;;;13.90;99.60;;;;;;5017474;28;20646;-68
2023/04/15 01:16:20;;;;;;;7.03;4.97;;;13.90;99.60;;;;;;4998182;28;20265;-68
2023/04/15 01:18:47;;;;;;;5.00;4.43;;;13.90;99.60;;;;;;4995301;28;20724;-68
2023/04/15 01:21:14;;;;;;;6.03;4.97;;;13.90;99.60;;;;;;5017131;28;20202;-68
2023/04/15 01:23:47;;;;;;;5.37;4.30;;;13.90;99.90;;;;;;5017543;28;20653;-68
2023/04/15 01:26:16;;;;;;;8.07;5.30;;;13.90;99.60;;;;;;5018255;28;20205;-68
2023/04/15 01:28:46;;;;;;;7.63;5.57;;;13.90;99.60;;;;;;4997864;28;20314;-68
2023/04/15 01:31:15;;;;;;;4.80;4.30;;;13.90;99.90;;;;;;4996249;28;20209;-68
2023/04/15 01:33:43;;;;;;;5.70;5.07;;;13.80;99.60;;;;;;4999997;28;20571;-68
2023/04/15 01:36:10;;;;;;;4.80;4.30;;;13.80;99.60;;;;;;5016372;28;20973;-68
2023/04/15 01:38:38;;;;;;;4.57;4.07;;;13.80;99.70;;;;;;5016978;28;20193;-68
2023/04/15 01:41:06;;;;;;;6.60;5.43;;;13.80;99.70;;;;;;4998246;28;20208;-68
2023/04/15 01:43:36;;;;;;;6.37;5.07;;;13.80;99.80;;;;;;5017044;28;20205;-68
2023/04/15 01:46:04;;;;;;;4.10;3.70;;;13.80;99.80;;;;;;5015717;28;20221;-68
2023/04/15 01:48:32;;;;;;;7.13;4.47;;;13.80;99.80;;;;;;5024703;28;20269;-68
2023/04/15 01:51:00;;;;;;;8.53;5.77;;;13.80;99.80;;;;;;5015864;28;20405;-69
2023/04/15 01:53:27;;;;;;;10.00;6.70;;;13.80;99.70;;;;;;5016497;28;20223;-68
2023/04/15 01:55:54;;;;;;;8.30;6.83;;;13.80;99.90;;;;;;5017503;28;20192;-69
2023/04/15 01:58:21;;;;;;;6.23;5.53;;;13.80;99.60;;;;;;4994596;28;20775;-69
2023/04/15 02:00:50;;;;;;;8.10;5.67;;;13.80;99.70;;;;;;4998456;28;20292;-68
2023/04/15 02:03:17;;;;;;;7.43;6.10;;;13.80;99.80;;;;;;5003090;28;20801;-67
2023/04/15 02:05:45;;;;;;;5.70;5.20;;;13.80;99.80;;;;;;5014869;28;20196;-67
2023/04/15 02:08:12;;;;;;;6.63;5.03;;;13.70;99.80;;;;;;5017222;28;20761;-68
2023/04/15 02:10:39;;;;;;;5.20;4.20;;;13.80;99.80;;;;;;5016751;28;20211;-68
2023/04/15 02:13:06;;;;;;;4.30;3.93;;;13.70;99.80;;;;;;5016703;28;20208;-68
2023/04/15 02:15:33;;;;;;;4.30;3.90;;;13.70;99.90;;;;;;5012203;28;20952;-68
2023/04/15 02:18:02;;;;;;;3.70;3.40;;;13.70;99.90;;;;;;5015207;28;20193;-68
2023/04/15 02:20:30;;;;;;;5.60;4.83;;;13.70;99.90;;;;;;5015458;28;20228;-68
2023/04/15 02:22:58;;;;;;;5.60;4.97;;;13.70;99.90;;;;;;5014580;28;20291;-68
2023/04/15 02:25:25;;;;;;;5.50;5.00;;;13.70;99.90;;;;;;5016044;28;20254;-68
2023/04/15 02:27:53;;;;;;;5.80;4.97;;;13.70;99.90;;;;;;5015826;28;20306;-68
2023/04/15 02:30:22;;;;;;;6.83;5.00;;;13.70;99.90;;;;;;5015699;28;20341;-68
2023/04/15 02:32:49;;;;;;;4.17;3.77;;;13.70;99.90;;;;;;5012765;28;20221;-68
2023/04/15 02:35:18;;;;;;;12.23;5.97;;;13.70;99.90;;;;;;5015011;28;20213;-68
2023/04/15 02:37:46;;;;;;;5.10;4.60;;;13.70;99.90;;;;;;5016777;28;20201;-68
2023/04/15 02:40:13;;;;;;;4.27;3.87;;;13.70;99.90;;;;;;5015869;28;20212;-68
2023/04/15 02:42:43;;;;;;;4.70;4.20;;;13.70;99.90;;;;;;5014189;28;20267;-68
2023/04/15 02:45:13;;;;;;;4.20;3.67;;;13.70;99.90;;;;;;5012137;28;20207;-68
2023/04/15 02:47:42;;;;;;;7.40;4.87;;;13.70;99.90;;;;;;5011802;28;20235;-68
2023/04/15 02:50:12;;;;;;;7.57;6.00;;;13.70;99.90;;;;;;5013446;28;20200;-68
2023/04/15 02:52:43;;;;;;;8.13;5.60;;;13.70;99.90;;;;;;5016430;28;20188;-68
2023/04/15 02:55:11;;;;;;;7.03;5.70;;;13.70;99.90;;;;;;5015278;28;20628;-68
2023/04/15 02:57:39;;;;;;;7.33;5.77;;;13.70;99.90;;;;;;5016136;28;20627;-68
2023/04/15 03:00:10;;;;;;;8.83;6.57;;;13.60;99.90;;;;;;5015341;28;20201;-67
2023/04/15 03:02:40;;;;;;;9.10;6.10;;;13.70;99.90;;;;;;5015273;28;20660;-68
2023/04/15 03:05:12;;;;;;;13.93;7.30;;;13.60;99.90;;;;;;4996195;28;20228;-68
2023/04/15 03:07:42;;;;;;;9.07;6.10;;;13.50;99.90;;;;;;5014790;28;20258;-66
2023/04/15 03:10:11;;;;;;;8.03;5.80;;;13.50;99.90;;;;;;5015240;28;20243;-67
2023/04/15 03:12:38;;;;;;;5.20;4.70;;;13.50;99.90;;;;;;4994788;28;20201;-68
2023/04/15 03:15:07;;;;;;;5.27;4.30;;;13.50;99.90;;;;;;4995222;28;20653;-67
2023/04/15 03:17:40;;;;;;;5.60;4.40;;;13.50;99.90;;;;;;4994693;28;20214;-68
2023/04/15 03:20:09;;;;;;;5.17;3.80;;;13.50;99.90;;;;;;4994628;28;20578;-68
2023/04/15 03:22:36;;;;;;;4.20;3.77;;;13.50;99.90;;;;;;4994545;28;20229;-68
2023/04/15 03:25:06;;;;;;;5.07;4.30;;;13.50;99.90;;;;;;4998802;28;20258;-68
2023/04/15 03:27:33;;;;;;;6.27;5.20;;;13.60;99.90;;;;;;4994421;28;20211;-67
2023/04/15 03:30:03;;;;;;;5.30;4.67;;;13.60;99.90;;;;;;4995344;28;20214;-67
2023/04/15 03:32:33;;;;;;;4.57;3.77;;;13.70;99.90;;;;;;4995946;28;20212;-66
2023/04/15 03:35:00;;;;;;;4.10;3.80;;;13.70;99.90;;;;;;5013905;28;20212;-66
2023/04/15 03:37:28;;;;;;;7.43;5.47;;;13.60;99.90;;;;;;5015472;28;20247;-67
2023/04/15 03:39:55;;;;;;;6.97;5.77;;;13.60;99.90;;;;;;5014246;28;20197;-66
2023/04/15 03:42:23;;;;;;;6.27;4.13;;;13.60;99.90;;;;;;5017817;28;20197;-67
2023/04/15 03:44:51;;;;;;;4.67;3.97;;;13.60;99.90;;;;;;4998127;28;20205;-67
2023/04/15 03:47:18;;;;;;;4.43;4.03;;;13.60;99.90;;;;;;5018255;28;20733;-66
2023/04/15 03:49:45;;;;;;;4.97;4.47;;;13.60;99.90;;;;;;5018269;28;20233;-67
2023/04/15 03:52:12;;;;;;;5.93;4.93;;;13.60;99.90;;;;;;5018882;28;20681;-67
2023/04/15 03:54:39;;;;;;;4.13;3.77;;;13.60;99.90;;;;;;5000276;28;20200;-67
2023/04/15 03:57:06;;;;;;;5.33;4.17;;;13.60;99.90;;;;;;4997451;28;20735;-67
2023/04/15 03:59:34;;;;;;;4.00;3.70;;;13.60;99.90;;;;;;4997304;28;20193;-67
2023/04/15 04:02:02;;;;;;;3.93;3.40;;;13.60;99.90;;;;;;5019082;28;20197;-67
2023/04/15 04:04:29;;;;;;;3.43;3.00;;;13.60;99.90;;;;;;5018101;28;20490;-67
2023/04/15 04:06:56;;;;;;;4.20;3.80;;;13.60;99.90;;;;;;5019612;28;20290;-67
2023/04/15 04:09:26;;;;;;;4.63;4.23;;;13.60;99.90;;;;;;4996775;28;20202;-67
2023/04/15 04:11:53;;;;;;;3.63;3.33;;;13.70;99.90;;;;;;5018729;28;20304;-67
2023/04/15 04:14:25;;;;;;;3.20;3.00;;;13.70;99.90;;;;;;4996226;28;20212;-67
2023/04/15 04:16:54;;;;;;;4.87;4.20;;;13.70;99.90;;;;;;5016834;28;22008;-67
2023/04/15 04:19:21;;;;;;;4.17;3.77;;;13.70;99.90;;;;;;5016815;28;20205;-67
2023/04/15 04:21:48;;;;;;;4.43;3.90;;;13.70;99.90;;;;;;5018954;28;20283;-67
2023/04/15 04:24:15;;;;;;;4.00;3.63;;;13.80;99.90;;;;;;5018678;28;20233;-67
2023/04/15 04:26:42;;;;;;;4.50;3.50;;;13.70;99.90;;;;;;5003053;28;20268;-67
2023/04/15 04:29:09;;;;;;;3.37;3.10;;;13.70;99.90;;;;;;5016405;28;20275;-67
2023/04/15 04:31:37;;;;;;;4.00;3.60;;;13.70;99.90;;;;;;5016202;28;20201;-67
2023/04/15 04:34:05;;;;;;;5.17;3.60;;;13.70;99.90;;;;;;5018013;28;20211;-67
2023/04/15 04:36:32;;;;;;;5.67;4.57;;;13.80;99.90;;;;;;5018025;28;20197;-68
2023/04/15 04:39:00;;;;;;;3.93;3.40;;;13.80;99.90;;;;;;5017001;28;20666;-67
2023/04/15 04:41:27;;;;;;;3.17;2.97;;;14.30;99.90;;;;;;4999963;28;20198;-68
2023/04/15 04:43:54;;;;;;;4.30;3.50;;;14.10;99.90;;;;;;5017190;28;20213;-67
2023/04/15 04:46:22;;;;;;;4.20;3.80;;;13.70;99.90;;;;;;5015785;28;20233;-67
2023/04/15 04:48:49;;;;;;;3.47;3.23;;;13.80;99.90;;;;;;5018083;28;20218;-67
2023/04/15 04:51:18;;;;;;;3.57;3.17;;;13.80;99.90;;;;;;5018507;28;20221;-67
2023/04/15 04:53:45;;;;;;;2.90;2.67;;;13.80;99.90;;;;;;5017979;28;20228;-68
2023/04/15 04:56:12;;;;;;;3.00;2.80;;;13.80;99.90;;;;;;5019187;28;20213;-68
2023/04/15 04:58:39;;;;;;;4.23;3.30;;;13.70;99.90;;;;;;5017214;28;20259;-68
2023/04/15 05:01:07;;;;;;;4.27;3.07;;;13.70;99.90;;;;;;5016261;28;20194;-68
2023/04/15 05:03:34;;;;;;;3.40;3.10;;;13.70;99.90;;;;;;5016718;28;20314;-68
2023/04/15 05:06:02;;;;;;;2.83;2.63;;;13.70;99.90;;;;;;5016791;28;20676;-68
2023/04/15 05:08:30;;;;;;;3.13;2.83;;;13.70;99.90;;;;;;5018804;28;20208;-67
2023/04/15 05:10:57;;;;;;;4.33;3.17;;;13.70;99.90;;;;;;5017034;28;20582;-68
2023/04/15 05:13:24;;;;;;;3.13;2.80;;;13.80;99.90;;;;;;5017168;28;20224;-68
2023/04/15 05:15:52;;;;;;;3.07;2.87;;;13.80;99.90;;;;;;5016471;28;20189;-68
2023/04/15 05:18:19;;;;;;;6.90;5.63;;;13.80;99.90;;;;;;5016743;28;20546;-68
2023/04/15 05:20:48;;;;;;;6.43;4.27;;;13.80;99.90;;;;;;4995768;28;20196;-68
2023/04/15 05:23:16;;;;;;;6.10;4.50;;;13.80;99.90;;;;;;5016805;28;20580;-69
2023/04/15 05:25:45;;;;;;;5.73;4.83;;;13.80;99.90;;;;;;5016765;28;20649;-69
2023/04/15 05:28:12;;;;;;;7.00;5.20;;;13.90;99.90;;;;;;5016488;28;20258;-68
2023/04/15 05:30:40;;;;;;;6.50;4.87;;;13.80;99.90;;;;;;5015042;28;20702;-69
2023/04/15 05:33:07;;;;;;;6.00;5.10;;;13.90;99.90;;;;;;5016601;28;20652;-68
2023/04/15 05:35:34;;;;;;;7.73;5.50;;;13.90;99.90;;;;;;5016683;28;20198;-69
2023/04/15 05:38:01;;;;;;;5.57;4.30;;;14.00;99.90;;;;;;5016804;28;20669;-68
2023/04/15 05:40:28;;;;;;;4.93;3.83;;;14.00;99.90;;;;;;5015105;28;20189;-68
2023/04/15 05:42:57;;;;;;;4.27;3.87;;;14.00;99.90;;;;;;4995896;28;20218;-68
2023/04/15 05:45:24;;;;;;;3.43;2.97;;;14.00;99.90;;;;;;5015378;28;20197;-70
2023/04/15 05:47:52;;;;;;;3.40;3.10;;;14.10;99.90;;;;;;5013751;28;20208;-68
2023/04/15 05:50:20;;;;;;;3.87;3.10;;;14.10;99.90;;;;;;4998363;28;20321;-68
2023/04/15 05:52:47;;;;;;;4.83;4.20;;;14.20;99.90;;;;;;5016112;28;20221;-68
2023/04/15 05:55:16;;;;;;;4.20;3.80;;;14.20;99.90;;;;;;5017858;28;20196;-68
2023/04/15 05:57:43;;;;;;;5.00;4.47;;;14.20;99.90;;;;;;5015392;28;20296;-68
2023/04/15 06:00:14;;;;;;;4.83;4.33;;;14.30;99.90;;;;;;4998198;28;20332;-69
2023/04/15 06:02:44;;;;;;;4.73;4.10;;;14.30;99.90;;;;;;5014999;28;20220;-69
2023/04/15 06:05:11;;;;;;;3.57;3.27;;;14.40;99.90;;;;;;5016026;28;20206;-68
2023/04/15 06:07:38;;;;;;;3.50;3.20;;;14.40;99.90;;;;;;4996820;28;20193;-68
2023/04/15 06:10:07;;;;;;;3.90;3.53;;;14.40;99.90;;;;;;5016200;28;20213;-67
2023/04/15 06:12:34;;;;;;;6.40;3.83;;;14.40;99.90;;;;;;5015028;28;20294;-67
2023/04/15 06:15:01;;;;;;;3.47;3.17;;;14.40;99.90;;;;;;5016382;28;20646;-67
2023/04/15 06:17:30;;;;;;;3.20;2.90;;;14.40;99.90;;;;;;5015541;28;20226;-68
2023/04/15 06:19:57;;;;;;;2.93;2.67;;;14.30;99.90;;;;;;5016489;28;20194;-68
2023/04/15 06:22:25;;;;;;;3.20;2.70;;;14.30;99.90;;;;;;5015530;28;20202;-68
2023/04/15 06:24:52;;;;;;;3.17;2.97;;;14.40;99.90;;;;;;4995832;28;20206;-68
2023/04/15 06:27:19;;;;;;;3.60;3.30;;;14.40;99.90;;;;;;5016026;28;20197;-69
2023/04/15 06:29:46;;;;;;;5.93;4.73;;;14.40;99.90;;;;;;5014982;28;20712;-69
2023/04/15 06:32:16;;;;;;;5.27;4.77;;;14.40;99.90;;;;;;5013857;28;20565;-69
2023/04/15 06:34:45;;;;;;;5.87;5.17;;;14.40;99.90;;;;;;5015428;28;20434;-67
2023/04/15 06:37:15;;;;;;;7.10;5.80;;;14.40;99.90;;;;;;5016236;28;20306;-69
2023/04/15 06:39:42;;;;;;;8.03;5.90;;;14.40;99.70;;;;;;5016829;28;20205;-68
2023/04/15 06:42:10;;;;;;;9.07;7.03;;;14.40;99.50;;;;;;5016442;28;20222;-68
2023/04/15 06:44:38;;;;;;;8.73;6.83;;;14.40;99.40;;;;;;5014950;28;20417;-68
2023/04/15 06:47:05;;;;;;;5.87;4.80;;;14.40;99.30;;;;;;5014326;28;20227;-67
2023/04/15 06:49:32;;;;;;;6.10;5.20;;;14.40;99.30;;;;;;5014704;28;20288;-68
2023/04/15 06:52:01;;;;;;;4.80;4.30;;;14.50;99.30;;;;;;4999230;28;20300;-68
2023/04/15 06:54:28;;;;;;;9.90;6.30;;;14.50;99.30;;;;;;5013899;28;20226;-69
2023/04/15 06:56:55;;;;;;;9.23;6.27;;;14.50;99.20;;;;;;5016825;28;20674;-68
2023/04/15 06:59:23;;;;;;;10.27;6.73;;;14.50;99.10;;;;;;4995235;28;20669;-68
2023/04/15 07:01:50;;;;;;;13.20;6.60;;;14.50;98.80;;;;;;4994989;28;20206;-68
2023/04/15 07:04:20;;;;;;;7.43;6.10;;;14.50;98.70;;;;;;5014053;28;20229;-68
2023/04/15 07:06:47;;;;;;;6.33;5.40;;;14.50;98.70;;;;;;5014618;28;20225;-70
2023/04/15 07:09:15;;;;;;;5.20;4.70;;;14.60;98.70;;;;;;5014383;28;20202;-68
2023/04/15 07:11:44;;;;;;;4.40;4.00;;;14.60;98.70;;;;;;5014393;28;20276;-69
2023/04/15 07:14:11;;;;;;;6.90;4.83;;;14.70;98.70;;;;;;5011996;28;20291;-69
2023/04/15 07:16:39;;;;;;;5.67;4.30;;;14.70;98.70;;;;;;5014944;28;20212;-69
2023/04/15 07:19:06;;;;;;;8.77;5.40;;;14.80;98.70;;;;;;4998960;28;20301;-68
2023/04/15 07:21:33;;;;;;;6.63;4.97;;;14.80;98.50;;;;;;5011737;28;20650;-67
2023/04/15 07:24:00;;;;;;;8.50;5.57;;;14.90;98.40;;;;;;5014643;28;20208;-67
2023/04/15 07:26:29;;;;;;;10.73;6.70;;;14.80;98.20;;;;;;5015897;28;20212;-68
2023/04/15 07:28:56;;;;;;;9.73;5.90;;;14.80;97.80;;;;;;4999805;28;20787;-68
2023/04/15 07:31:23;;;;;;;10.67;6.50;;;14.80;97.80;;;;;;5018499;28;20217;-68
2023/04/15 07:33:50;;;;;;;8.03;6.40;;;14.80;97.80;;;;;;4999522;28;20693;-68
2023/04/15 07:36:17;;;;;;;6.33;5.00;;;14.70;97.80;;;;;;5019651;28;20247;-69
2023/04/15 07:38:44;;;;;;;7.03;5.40;;;14.70;97.90;;;;;;5019938;28;20201;-69
2023/04/15 07:41:11;;;;;;;9.13;6.03;;;14.70;98.00;;;;;;4998640;28;20197;-69
2023/04/15 07:43:40;;;;;;;10.10;5.80;;;14.70;97.90;;;;;;5020086;28;20561;-69
2023/04/15 07:46:07;;;;;;;6.80;5.60;;;14.70;97.90;;;;;;5018631;28;20256;-69
2023/04/15 07:48:34;;;;;;;5.40;4.90;;;14.60;97.80;;;;;;5019735;28;20298;-68
2023/04/15 07:51:02;;;;;;;7.93;6.07;;;14.60;97.90;;;;;;5018262;28;20268;-69
2023/04/15 07:53:29;;;;;;;7.00;5.47;;;14.60;97.90;;;;;;5018300;28;20200;-68
2023/04/15 07:55:57;;;;;;;9.00;5.93;;;14.60;98.00;;;;;;5019017;28;20202;-69
2023/04/15 07:58:24;;;;;;;7.30;5.43;;;14.60;97.90;;;;;;5018693;28;20238;-69
2023/04/15 08:00:54;;;;;;;7.87;5.97;;;14.60;97.90;;;;;;5017242;28;20673;-68
2023/04/15 08:03:22;;;;;;;9.57;6.23;;;14.60;98.00;;;;;;5018219;28;20244;-69
2023/04/15 08:05:49;;;;;;;11.80;5.93;;;14.60;98.00;;;;;;4998196;28;20210;-69
2023/04/15 08:08:16;;;;;;;6.47;5.57;;;14.50;98.00;;;;;;5019611;28;20220;-68
2023/04/15 08:10:44;;;;;;;12.03;5.67;;;14.50;98.00;;;;;;4999262;28;20311;-68
2023/04/15 08:13:11;;;;;;;6.77;5.20;;;14.50;98.00;;;;;;5018349;28;20206;-69
2023/04/15 08:15:38;;;;;;;9.63;6.23;;;14.50;98.00;;;;;;5017879;28;20276;-68
2023/04/15 08:18:06;;;;;;;8.60;5.50;;;14.60;98.00;;;;;;5017099;28;20201;-68
2023/04/15 08:20:36;;;;;;;7.80;5.90;;;14.50;97.90;;;;;;5018648;28;20198;-68
2023/04/15 08:23:03;;;;;;;12.90;5.83;;;14.50;97.90;;;;;;5018511;28;20248;-69
2023/04/15 08:25:30;;;;;;;7.83;5.70;;;14.50;98.00;;;;;;5019167;28;20290;-69
2023/04/15 08:27:57;;;;;;;6.70;4.90;;;14.50;98.00;;;;;;5016679;28;20205;-68
2023/04/15 08:30:24;;;;;;;8.03;5.67;;;14.40;98.00;;;;;;5018453;28;20217;-69
2023/04/15 08:32:52;;;;;;;8.90;5.57;;;14.40;98.10;;;;;;5017657;28;20220;-69
2023/04/15 08:35:21;;;;;;;6.93;5.40;;;14.40;98.00;;;;;;5001988;28;20278;-68
2023/04/15 08:37:48;;;;;;;9.60;5.53;;;14.40;98.00;;;;;;5018301;28;20394;-69
2023/04/15 08:40:15;;;;;;;4.33;3.93;;;14.50;98.10;;;;;;4997271;28;20195;-69
2023/04/15 08:42:49;;;;;;;5.43;4.63;;;14.50;98.10;;;;;;5017754;28;20205;-69
2023/04/15 08:45:18;;;;;;;10.17;5.50;;;14.60;98.10;;;;;;5017657;28;20538;-69
2023/04/15 08:47:46;;;;;;;6.17;4.67;;;14.60;98.10;;;;;;5016235;28;20202;-69
2023/04/15 08:50:16;;;;;;;7.70;5.30;;;14.70;98.10;;;;;;5017704;28;20234;-70
2023/04/15 08:52:44;;;;;;;7.80;5.63;;;14.70;98.20;;;;;;5018032;28;20201;-69
2023/04/15 08:55:13;;;;;;;7.47;5.17;;;14.70;98.20;;;;;;5018400;28;20197;-69
2023/04/15 08:57:40;;;;;;;7.77;5.17;;;14.70;98.10;;;;;;4996624;28;20260;-69
2023/04/15 09:00:09;;;;;;;7.87;5.77;;;14.70;98.10;;;;;;5018298;28;22265;-68
2023/04/15 09:02:36;;;;;;;7.27;4.80;;;14.70;98.00;;;;;;4964640;28;1483791;-69
2023/04/15 09:05:07;;;;;;;6.23;3.87;;;14.80;98.00;;;;;;5018919;28;20260;-69
2023/04/15 09:07:35;;;;;;;9.47;6.00;;;14.70;98.00;;;;;;5019317;28;20194;-69
2023/04/15 09:10:05;;;;;;;6.03;4.80;;;14.70;97.90;;;;;;5018982;28;20214;-69
2023/04/15 09:12:35;;;;;;;4.20;3.90;;;14.70;97.80;;;;;;5018327;28;20198;-69
2023/04/15 09:15:02;;;;;;;3.87;3.47;;;14.70;97.90;;;;;;5018846;28;20283;-69
2023/04/15 09:17:32;;;;;;;3.93;3.23;;;14.80;98.00;;;;;;5015652;28;20611;-69
2023/04/15 09:20:09;;;;;;;3.80;3.40;;;14.80;98.00;;;;;;5018053;28;20199;-69
2023/04/15 09:22:37;;;;;;;5.77;4.13;;;14.70;98.00;;;;;;5018151;28;20804;-68
2023/04/15 09:25:26;;;;;;;4.00;3.60;;;14.80;98.00;;;;;;5018711;28;20679;-70
2023/04/15 09:27:55;;;;;;;16.33;5.53;;;14.80;98.00;;;;;;5017628;28;20192;-68
2023/04/15 09:30:23;;;;;;;10.20;5.43;;;14.80;98.00;;;;;;4996237;28;20707;-69
2023/04/15 09:32:51;;;;;;;6.03;4.70;;;14.80;98.00;;;;;;5012915;28;20322;-68
2023/04/15 09:35:18;;;;;;;8.57;5.57;;;14.80;98.00;;;;;;5017134;28;20199;-68
2023/04/15 09:37:45;;;;;;;6.10;4.53;;;14.70;97.90;;;;;;5018601;28;20219;-69
2023/04/15 09:40:14;;;;;;;4.37;3.70;;;14.70;98.00;;;;;;4996716;28;20293;-69
2023/04/15 09:42:55;;;;;;;4.53;3.80;;;14.80;98.00;;;;;;5019673;28;20351;-69
2023/04/15 09:45:23;;;;;;;9.47;5.47;;;14.80;98.00;;;;;;5018156;28;20281;-69
2023/04/15 09:47:51;;;;;;;6.40;4.83;;;14.70;98.00;;;;;;4997203;28;20569;-69
2023/04/15 09:50:19;;;;;;;11.60;6.17;;;14.70;98.00;;;;;;5017128;28;20218;-69
2023/04/15 09:52:47;;;;;;;4.50;4.07;;;14.70;97.90;;;;;;5017462;28;20469;-69
2023/04/15 09:55:18;;;;;;;5.83;4.60;;;14.70;97.90;;;;;;4996483;28;20320;-69
2023/04/15 09:57:47;;;;;;;8.33;5.00;;;14.70;98.00;;;;;;5016908;28;20209;-69
2023/04/15 10:00:14;;;;;;;6.50;4.60;;;14.70;98.00;;;;;;4995876;28;20313;-69
2023/04/15 10:02:42;;;;;;;6.43;5.07;;;14.70;98.00;;;;;;5016858;28;20289;-69
2023/04/15 10:05:13;;;;;;;7.70;5.70;;;14.70;98.00;;;;;;5015033;28;20519;-69
2023/04/15 10:07:41;;;;;;;6.60;4.60;;;14.70;98.00;;;;;;5017731;28;20193;-70
2023/04/15 10:10:09;;;;;;;5.50;4.60;;;14.70;98.00;;;;;;5017082;28;20198;-69
2023/04/15 10:12:42;;;;;;;4.43;3.97;;;14.70;98.00;;;;;;5016158;28;20248;-70
2023/04/15 10:15:15;;;;;;;4.30;3.70;;;14.70;98.00;;;;;;5016453;28;20194;-69
2023/04/15 10:17:45;;;;;;;4.37;3.40;;;14.60;98.00;;;;;;5016396;28;20269;-66
2023/04/15 10:20:13;;;;;;;5.43;4.23;;;14.70;98.10;;;;;;5016853;28;20207;-69
2023/04/15 10:22:42;;;;;;;6.57;4.23;;;14.60;98.00;;;;;;5017265;28;20209;-69
2023/04/15 10:25:11;;;;;;;7.80;5.13;;;14.60;97.90;;;;;;4997389;28;20573;-70
2023/04/15 10:27:42;;;;;;;6.17;4.70;;;14.60;97.90;;;;;;5016217;28;20291;-69
2023/04/15 10:30:10;;;;;;;5.03;4.03;;;14.60;97.90;;;;;;5016836;28;20285;-70
2023/04/15 10:32:38;;;;;;;5.77;4.47;;;14.60;97.90;;;;;;5015902;28;20280;-69
2023/04/15 10:35:07;;;;;;;8.67;4.77;;;14.70;98.00;;;;;;5016810;28;20202;-70
2023/04/15 10:37:36;;;;;;;5.53;4.40;;;14.70;97.90;;;;;;5016785;28;20207;-69
2023/04/15 10:40:30;;;;;;;6.60;4.70;;;14.70;97.90;;;;;;5017261;28;20808;-69
2023/04/15 10:42:59;;;;;;;5.90;4.50;;;14.80;97.90;;;;;;5016917;28;20250;-69
2023/04/15 10:45:29;;;;;;;5.73;4.60;;;14.70;97.90;;;;;;5016261;28;20198;-69
2023/04/15 10:47:57;;;;;;;7.00;4.80;;;14.80;97.90;;;;;;4995615;28;20217;-69
2023/04/15 10:50:28;;;;;;;8.83;4.90;;;14.80;97.90;;;;;;5016100;28;20205;-68
2023/04/15 10:52:56;;;;;;;4.23;3.83;;;14.80;97.90;;;;;;5017253;28;20317;-70
2023/04/15 10:55:26;;;;;;;4.60;3.97;;;14.80;97.90;;;;;;5016924;28;20224;-69
2023/04/15 10:57:54;;;;;;;10.50;4.73;;;14.80;97.90;;;;;;5016739;28;20623;-68
2023/04/15 11:00:26;;;;;;;4.27;3.77;;;14.70;97.90;;;;;;5016032;28;20562;-69
2023/04/15 11:02:55;;;;;;;3.70;3.30;;;14.60;98.00;;;;;;5016375;28;20368;-69
2023/04/15 11:05:23;;;;;;;5.43;3.90;;;14.60;98.00;;;;;;5015858;28;20225;-69
2023/04/15 11:07:53;;;;;;;3.67;3.37;;;14.60;98.10;;;;;;5014653;28;20194;-69
2023/04/15 11:10:54;;;;;;;7.07;4.80;;;14.50;98.10;;;;;;5014343;28;20190;-68
2023/04/15 11:13:24;;;;;;;5.47;4.27;;;14.50;98.00;;;;;;5015709;28;20559;-68
2023/04/15 11:15:57;;;;;;;4.33;3.33;;;14.60;98.00;;;;;;4999901;28;20210;-67
2023/04/15 11:18:26;;;;;;;4.07;3.50;;;14.60;98.10;;;;;;5015548;28;20198;-68
2023/04/15 11:20:56;;;;;;;9.57;4.53;;;14.60;98.10;;;;;;5015786;28;20199;-69
2023/04/15 11:23:29;;;;;;;10.47;5.90;;;14.70;98.10;;;;;;5015926;28;20209;-68
2023/04/15 11:25:58;;;;;;;9.57;5.87;;;14.70;97.90;;;;;;5016714;28;20196;-69
2023/04/15 11:28:27;;;;;;;8.03;4.53;;;14.70;97.90;;;;;;5014710;28;20202;-68
2023/04/15 11:30:56;;;;;;;4.60;3.90;;;14.70;97.90;;;;;;5014698;28;20206;-68
2023/04/15 11:33:24;;;;;;;5.50;4.53;;;14.70;97.90;;;;;;5015687;28;20302;-67
2023/04/15 11:35:53;;;;;;;6.57;4.90;;;14.70;97.90;;;;;;5016086;28;20287;-67
2023/04/15 11:38:21;;;;;;;7.27;4.57;;;14.70;97.90;;;;;;5016173;28;20206;-69
2023/04/15 11:40:50;;;;;;;4.13;3.73;;;14.80;97.90;;;;;;5016100;28;20202;-69
2023/04/15 11:43:19;;;;;;;6.93;4.70;;;14.90;98.00;;;;;;5015931;28;20202;-67
2023/04/15 11:45:52;;;;;;;6.70;5.00;;;15.00;97.90;;;;;;5014102;28;20252;-67
2023/04/15 11:48:22;;;;;;;8.20;5.00;;;15.00;97.80;;;;;;5008795;28;20208;-68
2023/04/15 11:50:55;;;;;;;5.80;4.67;;;15.10;97.70;;;;;;5008826;28;20343;-67
2023/04/15 11:53:22;;;;;;;8.50;5.00;;;15.20;97.60;;;;;;5015380;28;20252;-67
2023/04/15 11:55:51;;;;;;;6.77;4.90;;;15.20;97.50;;;;;;5010639;28;21084;-67
2023/04/15 11:58:21;;;;;;;9.80;4.80;;;15.30;97.40;;;;;;5013812;28;20527;-67
2023/04/15 12:00:50;;;;;;;6.63;4.63;;;15.30;97.40;;;;;;5013899;28;20230;-68
2023/04/15 12:03:26;;;;;;;5.83;4.53;;;15.40;97.30;;;;;;4996086;28;20236;-67
2023/04/15 12:06:11;;;;;;;6.13;4.70;;;15.50;97.30;;;;;;5013399;28;20308;-68
2023/04/15 12:09:01;;;;;;;8.23;5.30;;;15.60;97.30;;;;;;5018318;28;20202;-66
2023/04/15 12:11:30;;;;;;;5.87;4.40;;;15.70;97.10;;;;;;5017376;28;20207;-68
2023/04/15 12:14:21;;;;;;;4.00;3.60;;;15.80;97.10;;;;;;4997411;28;20203;-68
2023/04/15 12:16:50;;;;;;;9.37;6.20;;;15.80;97.10;;;;;;4991444;28;20938;-68
2023/04/15 12:19:25;;;;;;;10.93;6.10;;;15.80;96.70;;;;;;5018011;28;20203;-68
2023/04/15 12:21:54;;;;;;;8.30;5.70;;;15.60;96.50;;;;;;5022569;28;20194;-68
2023/04/15 12:24:22;;;;;;;6.43;5.40;;;15.50;96.60;;;;;;5027535;28;20207;-67
2023/04/15 12:26:51;;;;;;;7.40;5.43;;;15.40;96.80;;;;;;5030416;28;20194;-66
2023/04/15 12:29:19;;;;;;;5.93;5.00;;;15.40;96.90;;;;;;5028712;28;20206;-69
2023/04/15 12:31:52;;;;;;;10.17;5.37;;;15.30;96.90;;;;;;5031183;28;20688;-68
2023/04/15 12:34:28;;;;;;;6.70;5.40;;;15.30;97.00;;;;;;5024157;28;20198;-68
2023/04/15 12:36:56;;;;;;;7.90;5.70;;;15.30;97.10;;;;;;5011492;28;20252;-69
2023/04/15 12:39:24;;;;;;;8.57;5.87;;;15.20;97.10;;;;;;5016396;28;20316;-68
2023/04/15 12:41:51;;;;;;;6.37;5.10;;;15.10;97.00;;;;;;5026470;28;20194;-67
2023/04/15 12:44:19;;;;;;;7.47;5.57;;;15.10;97.20;;;;;;5028277;28;20199;-68
2023/04/15 12:46:46;;;;;;;9.17;5.97;;;15.00;97.20;;;;;;5031220;28;20225;-67
2023/04/15 12:49:14;;;;;;;5.80;4.97;;;14.90;97.30;;;;;;5029501;28;20209;-68
2023/04/15 12:51:43;;;;;;;6.90;4.70;;;14.90;97.50;;;;;;5029588;28;20210;-69
2023/04/15 12:54:11;;;;;;;7.77;5.00;;;14.80;97.50;;;;;;5029258;28;20620;-69